Time;durP1;ratioP1;P1;durP2;ratioP2;P2;SDS_P1;SDS_P2;PMS_P1;PMS_P2;Temp;Humidity;BMP_temperature;BMP_pressure;BME280_temperature;BME280_humidity;BME280_pressure;Samples;Min_cycle;Max_cycle;Signal;HPM_P1;HPM_P2
2023/01/12 00:01:20;;;;;;;13.82;2.63;;;6.30;99.90;;;;;;4997134;28;20203;-78
2023/01/12 00:03:47;;;;;;;14.88;3.15;;;6.30;99.90;;;;;;4995923;28;20180;-78
2023/01/12 00:06:13;;;;;;;10.88;2.85;;;6.30;99.90;;;;;;4996584;28;20185;-78
2023/01/12 00:08:39;;;;;;;8.45;2.58;;;6.30;99.90;;;;;;4996021;28;20199;-78
2023/01/12 00:11:04;;;;;;;11.27;3.05;;;6.40;99.90;;;;;;4997059;28;20188;-78
2023/01/12 00:13:31;;;;;;;10.10;2.92;;;6.30;99.90;;;;;;4996119;28;20187;-78
2023/01/12 00:17:02;;;;;;;11.65;3.08;;;6.40;99.90;;;;;;4995772;28;20211;-78
2023/01/12 00:18:57;;;;;;;10.90;2.92;;;6.40;99.90;;;;;;4991918;28;20569;-78
2023/01/12 00:21:22;;;;;;;11.52;3.00;;;6.40;99.90;;;;;;4995824;28;20172;-78
2023/01/12 00:23:48;;;;;;;7.90;2.67;;;6.40;99.90;;;;;;4995830;28;20173;-78
2023/01/12 00:26:13;;;;;;;14.65;2.92;;;6.40;99.90;;;;;;4996411;28;20271;-78
2023/01/12 00:28:39;;;;;;;11.35;2.42;;;6.50;99.90;;;;;;4995963;28;20210;-78
2023/01/12 00:31:09;;;;;;;6.18;2.28;;;6.50;99.90;;;;;;4995419;28;20279;-78
2023/01/12 00:33:36;;;;;;;10.00;2.47;;;6.40;99.90;;;;;;4996144;28;20595;-78
2023/01/12 00:36:09;;;;;;;13.27;2.90;;;6.40;99.90;;;;;;4995019;28;20207;-78
2023/01/12 00:38:35;;;;;;;9.15;3.00;;;6.40;99.90;;;;;;4995250;28;20204;-78
2023/01/12 00:41:08;;;;;;;12.38;2.97;;;6.40;99.90;;;;;;4994671;28;20212;-78
2023/01/12 00:46:18;;;;;;;12.80;2.60;;;6.40;99.90;;;;;;4995530;28;20168;-78
2023/01/12 00:48:44;;;;;;;16.50;3.47;;;6.40;99.90;;;;;;4994344;28;20200;-78
2023/01/12 00:51:10;;;;;;;8.95;2.65;;;6.40;99.90;;;;;;4993763;28;20184;-78
2023/01/12 00:53:35;;;;;;;6.75;2.22;;;6.40;99.90;;;;;;4993446;28;20291;-78
2023/01/12 00:56:28;;;;;;;11.80;2.60;;;6.40;99.90;;;;;;4993506;28;20274;-78
2023/01/12 00:58:53;;;;;;;10.70;2.63;;;6.40;99.90;;;;;;4994539;28;20192;-77
2023/01/12 01:01:19;;;;;;;9.18;2.80;;;6.40;99.90;;;;;;4992987;28;20338;-77
2023/01/12 01:03:44;;;;;;;12.82;2.92;;;6.40;99.90;;;;;;4992928;28;20270;-77
2023/01/12 01:06:10;;;;;;;9.65;2.53;;;6.40;99.90;;;;;;4996167;28;20172;-78
2023/01/12 01:08:36;;;;;;;8.30;2.60;;;6.40;99.90;;;;;;4996753;28;20200;-77
2023/01/12 01:11:05;;;;;;;11.82;3.00;;;6.40;99.90;;;;;;4997004;28;20589;-77
2023/01/12 01:13:30;;;;;;;10.48;2.65;;;6.40;99.90;;;;;;4995849;28;20218;-77
2023/01/12 01:16:00;;;;;;;9.63;2.95;;;6.40;99.90;;;;;;4995711;28;20217;-77
2023/01/12 01:21:48;;;;;;;13.35;3.28;;;6.40;99.90;;;;;;4996872;28;20171;-78
2023/01/12 01:24:14;;;;;;;16.77;3.22;;;6.40;99.90;;;;;;4995909;28;20235;-77
2023/01/12 01:26:40;;;;;;;10.68;2.65;;;6.40;99.90;;;;;;4996640;28;20180;-77
2023/01/12 01:29:06;;;;;;;13.32;2.72;;;6.40;99.90;;;;;;4995798;28;20258;-77
2023/01/12 01:31:32;;;;;;;9.70;3.00;;;6.50;99.90;;;;;;4996317;28;20217;-77
2023/01/12 01:33:58;;;;;;;10.05;2.55;;;6.50;99.90;;;;;;4995900;28;20211;-77
2023/01/12 01:36:24;;;;;;;9.00;2.50;;;6.50;99.90;;;;;;4995573;28;20184;-77
2023/01/12 01:38:52;;;;;;;9.27;2.55;;;6.60;99.90;;;;;;4996098;28;20335;-77
2023/01/12 01:41:29;;;;;;;11.25;2.78;;;6.60;99.90;;;;;;4996448;28;20188;-78
2023/01/12 01:44:01;;;;;;;16.92;3.00;;;6.70;99.90;;;;;;4995906;28;20175;-78
2023/01/12 01:46:37;;;;;;;13.15;2.85;;;6.70;99.90;;;;;;4996799;28;20259;-78
2023/01/12 01:49:22;;;;;;;11.90;2.42;;;6.70;99.90;;;;;;4997250;28;20290;-78
2023/01/12 01:51:50;;;;;;;11.43;2.85;;;6.70;99.90;;;;;;4997126;28;20191;-78
2023/01/12 01:54:16;;;;;;;11.00;2.53;;;6.80;99.90;;;;;;4997422;28;20180;-78
2023/01/12 01:56:42;;;;;;;11.25;2.45;;;6.80;99.90;;;;;;4997697;28;20180;-78
2023/01/12 01:59:13;;;;;;;11.35;2.70;;;6.80;99.90;;;;;;4997518;28;20183;-78
2023/01/12 02:01:39;;;;;;;10.27;2.75;;;6.80;99.90;;;;;;4998070;28;20260;-78
2023/01/12 02:04:06;;;;;;;9.02;2.22;;;6.80;99.90;;;;;;4997596;28;20215;-78
2023/01/12 02:06:32;;;;;;;13.88;2.25;;;6.80;99.90;;;;;;4998028;28;20267;-78
2023/01/12 02:09:13;;;;;;;11.68;2.50;;;6.90;99.90;;;;;;4997133;28;20196;-78
2023/01/12 02:18:09;;;;;;;14.93;3.33;;;6.90;99.90;;;;;;4994571;28;20211;-77
2023/01/12 02:20:41;;;;;;;13.48;3.72;;;6.80;99.90;;;;;;4938926;29;20216;-77
2023/01/12 02:23:22;;;;;;;7.90;2.58;;;6.80;99.90;;;;;;4986332;28;20184;-77
2023/01/12 02:26:18;;;;;;;11.00;2.95;;;6.90;99.90;;;;;;4994309;28;20168;-77
2023/01/12 02:29:14;;;;;;;9.43;2.88;;;6.90;99.90;;;;;;4995212;28;20211;-77
2023/01/12 02:32:00;;;;;;;9.63;2.55;;;6.90;99.90;;;;;;4995658;28;20211;-77
2023/01/12 02:34:54;;;;;;;11.45;3.00;;;6.90;99.90;;;;;;4995113;28;20258;-77
2023/01/12 02:37:35;;;;;;;11.77;2.70;;;6.90;99.90;;;;;;4993994;28;20224;-77
2023/01/12 02:40:24;;;;;;;11.23;2.90;;;7.00;99.90;;;;;;4994868;28;20253;-77
2023/01/12 02:43:13;;;;;;;10.52;3.03;;;7.00;99.90;;;;;;4994833;28;20554;-77
2023/01/12 02:45:46;;;;;;;11.93;2.85;;;7.00;99.90;;;;;;4995175;28;20156;-77
2023/01/12 02:48:24;;;;;;;15.55;3.03;;;7.00;99.90;;;;;;4994216;28;20204;-77
2023/01/12 02:51:11;;;;;;;13.15;3.10;;;7.00;99.90;;;;;;4994693;28;20209;-77
2023/01/12 02:53:49;;;;;;;12.38;3.08;;;7.00;99.90;;;;;;4994528;28;20207;-77
2023/01/12 02:56:30;;;;;;;11.57;2.80;;;7.00;99.90;;;;;;4993771;28;20244;-77
2023/01/12 02:59:01;;;;;;;12.60;2.90;;;7.00;99.90;;;;;;4994756;28;20200;-77
2023/01/12 03:01:29;;;;;;;9.95;2.80;;;7.00;99.90;;;;;;4994137;28;20215;-77
2023/01/12 03:03:58;;;;;;;9.85;2.22;;;7.00;99.90;;;;;;4995005;28;20188;-77
2023/01/12 03:06:24;;;;;;;14.57;3.78;;;6.90;99.90;;;;;;4993872;28;20203;-77
2023/01/12 03:08:51;;;;;;;8.88;2.67;;;6.90;99.90;;;;;;4994680;28;20319;-77
2023/01/12 03:11:22;;;;;;;11.02;2.72;;;6.80;99.90;;;;;;4993506;28;20218;-77
2023/01/12 03:13:53;;;;;;;8.25;2.22;;;6.80;99.90;;;;;;4993392;28;20336;-77
2023/01/12 03:16:22;;;;;;;12.18;2.97;;;6.80;99.90;;;;;;4993590;28;20222;-77
2023/01/12 03:19:17;;;;;;;7.50;2.45;;;6.80;99.90;;;;;;4993266;28;20204;-77
2023/01/12 03:21:56;;;;;;;11.82;2.88;;;6.80;99.90;;;;;;4993421;28;20179;-77
2023/01/12 03:24:29;;;;;;;14.00;3.00;;;6.70;99.90;;;;;;4994108;28;20191;-77
2023/01/12 03:27:06;;;;;;;10.32;2.70;;;6.80;99.90;;;;;;4993179;28;20191;-77
2023/01/12 03:29:36;;;;;;;12.18;2.65;;;6.70;99.90;;;;;;4993320;28;20639;-77
2023/01/12 03:32:02;;;;;;;9.73;2.75;;;6.80;99.90;;;;;;4994720;28;20169;-77
2023/01/12 03:34:29;;;;;;;9.90;2.80;;;6.70;99.90;;;;;;4993256;28;20684;-77
2023/01/12 03:37:09;;;;;;;12.57;2.88;;;6.70;99.90;;;;;;4993302;28;20276;-77
2023/01/12 03:39:56;;;;;;;12.25;3.10;;;6.70;99.90;;;;;;4993284;28;20307;-77
2023/01/12 03:42:42;;;;;;;7.57;2.65;;;6.70;99.90;;;;;;4993225;28;20173;-77
2023/01/12 03:45:27;;;;;;;13.63;2.90;;;6.70;99.90;;;;;;4993147;28;20200;-77
2023/01/12 03:48:15;;;;;;;13.63;2.95;;;6.80;99.90;;;;;;4993091;28;20569;-77
2023/01/12 03:50:49;;;;;;;10.50;2.58;;;6.70;99.90;;;;;;4993822;28;20178;-77
2023/01/12 03:53:18;;;;;;;13.70;3.30;;;6.70;99.90;;;;;;4993161;28;20195;-77
2023/01/12 03:55:47;;;;;;;14.40;3.05;;;6.70;99.90;;;;;;4993111;28;20211;-77
2023/01/12 03:58:12;;;;;;;13.15;2.88;;;6.70;99.90;;;;;;4992963;28;20204;-77
2023/01/12 04:00:38;;;;;;;11.65;2.83;;;6.70;99.90;;;;;;4993082;28;20203;-77
2023/01/12 04:03:10;;;;;;;13.10;3.05;;;6.70;99.90;;;;;;4993023;28;20254;-77
2023/01/12 04:05:36;;;;;;;7.47;2.35;;;6.80;99.90;;;;;;4993359;28;20645;-77
2023/01/12 04:08:02;;;;;;;10.57;2.83;;;6.80;99.90;;;;;;4992846;28;20227;-77
2023/01/12 04:10:27;;;;;;;8.10;2.53;;;6.80;99.90;;;;;;4993301;28;20180;-77
2023/01/12 04:12:53;;;;;;;11.48;2.50;;;6.80;99.90;;;;;;4993191;28;20204;-77
2023/01/12 04:15:18;;;;;;;9.35;2.95;;;6.80;99.90;;;;;;4992934;28;20216;-77
2023/01/12 04:17:44;;;;;;;11.23;2.75;;;6.80;99.90;;;;;;4992758;28;20278;-77
2023/01/12 04:20:10;;;;;;;9.18;2.78;;;6.80;99.90;;;;;;4992718;28;20218;-77
2023/01/12 04:22:42;;;;;;;13.00;2.60;;;6.90;99.90;;;;;;4993109;28;20547;-77
2023/01/12 04:25:09;;;;;;;16.60;4.82;;;6.80;99.90;;;;;;4993090;28;20169;-77
2023/01/12 04:27:34;;;;;;;18.98;7.28;;;6.80;99.90;;;;;;4993129;28;20263;-77
2023/01/12 04:30:00;;;;;;;13.40;7.47;;;6.90;99.90;;;;;;4992727;28;20184;-77
2023/01/12 04:32:25;;;;;;;18.27;7.28;;;6.90;99.90;;;;;;4992800;28;20183;-77
2023/01/12 04:34:51;;;;;;;15.70;7.07;;;6.90;99.90;;;;;;4992607;28;20182;-77
2023/01/12 04:37:17;;;;;;;16.13;8.05;;;6.90;99.90;;;;;;4993285;28;20196;-77
2023/01/12 04:39:43;;;;;;;19.33;9.85;;;6.90;99.90;;;;;;4995162;28;20211;-77
2023/01/12 04:42:59;;;;;;;15.50;6.68;;;6.90;99.90;;;;;;4996458;28;20256;-77
2023/01/12 04:44:54;;;;;;;39.85;22.65;;;6.90;99.90;;;;;;4997453;28;20249;-77
2023/01/12 04:47:19;;;;;;;30.33;16.35;;;7.00;99.90;;;;;;4996274;28;20200;-77
2023/01/12 04:49:45;;;;;;;41.50;26.10;;;7.00;99.90;;;;;;4996058;28;20238;-77
2023/01/12 04:52:10;;;;;;;18.02;10.60;;;7.00;99.90;;;;;;4997517;28;20227;-77
2023/01/12 04:54:36;;;;;;;27.40;13.02;;;7.00;99.90;;;;;;4996402;28;20203;-77
2023/01/12 04:57:01;;;;;;;32.65;19.35;;;7.00;99.90;;;;;;4996142;28;20207;-77
2023/01/12 04:59:28;;;;;;;33.70;19.77;;;7.00;99.90;;;;;;4995898;28;20581;-77
2023/01/12 05:01:53;;;;;;;44.72;26.42;;;7.00;99.90;;;;;;4995800;28;20173;-77
2023/01/12 05:04:19;;;;;;;21.52;9.68;;;7.00;99.90;;;;;;4995829;28;20181;-77
2023/01/12 05:06:44;;;;;;;16.45;8.93;;;7.00;99.90;;;;;;4995745;28;20195;-77
2023/01/12 05:11:54;;;;;;;10.85;3.80;;;7.00;99.90;;;;;;4997330;28;20164;-77
2023/01/12 05:14:19;;;;;;;13.80;3.17;;;7.00;99.90;;;;;;4995761;28;20176;-77
2023/01/12 05:16:45;;;;;;;9.88;2.60;;;7.00;99.90;;;;;;4996202;28;20199;-77
2023/01/12 05:19:10;;;;;;;12.65;3.17;;;7.00;99.90;;;;;;4995868;28;20275;-77
2023/01/12 05:21:36;;;;;;;12.43;3.03;;;6.90;99.90;;;;;;4995985;28;20263;-77
2023/01/12 05:24:01;;;;;;;12.80;2.95;;;7.00;99.90;;;;;;4995466;28;20216;-77
2023/01/12 05:26:27;;;;;;;11.10;3.47;;;7.00;99.90;;;;;;4995585;28;20180;-77
2023/01/12 05:28:53;;;;;;;12.98;3.55;;;7.00;99.90;;;;;;4995711;28;20200;-77
2023/01/12 05:31:19;;;;;;;19.40;3.40;;;7.00;99.90;;;;;;4996542;28;20262;-77
2023/01/12 05:33:45;;;;;;;14.23;3.55;;;7.00;99.90;;;;;;4995771;28;20180;-77
2023/01/12 05:36:13;;;;;;;12.43;3.33;;;7.00;99.90;;;;;;4995428;28;20198;-78
2023/01/12 05:38:39;;;;;;;12.45;3.30;;;7.00;99.90;;;;;;4995602;28;20296;-77
2023/01/12 05:41:13;;;;;;;15.07;3.50;;;7.00;99.90;;;;;;4996321;28;20299;-77
2023/01/12 05:43:51;;;;;;;9.25;2.40;;;7.00;99.90;;;;;;4996264;28;20194;-77
2023/01/12 05:46:22;;;;;;;13.88;3.15;;;7.00;99.90;;;;;;4996688;28;20161;-77
2023/01/12 05:48:49;;;;;;;8.98;2.60;;;7.10;99.90;;;;;;4996728;28;20204;-77
2023/01/12 05:51:15;;;;;;;17.38;3.45;;;7.00;99.90;;;;;;4995050;28;20211;-77
2023/01/12 05:53:41;;;;;;;13.13;3.17;;;7.10;99.90;;;;;;4997030;28;20191;-78
2023/01/12 05:56:18;;;;;;;18.40;3.35;;;7.10;99.90;;;;;;4996996;28;20203;-78
2023/01/12 05:58:55;;;;;;;13.45;3.03;;;7.10;99.90;;;;;;4996570;28;20203;-78
2023/01/12 06:01:21;;;;;;;11.38;2.97;;;7.10;99.90;;;;;;4995757;28;20227;-78
2023/01/12 06:03:49;;;;;;;11.65;2.90;;;7.10;99.90;;;;;;4997005;28;20590;-78
2023/01/12 06:06:30;;;;;;;11.82;2.55;;;7.10;99.90;;;;;;4996322;28;20267;-78
2023/01/12 06:08:56;;;;;;;10.55;3.00;;;7.10;99.90;;;;;;4996363;28;20199;-77
2023/01/12 06:14:07;;;;;;;10.98;3.05;;;7.10;99.90;;;;;;4996862;28;20183;-78
2023/01/12 06:16:36;;;;;;;11.48;3.03;;;7.10;99.90;;;;;;4995367;28;20253;-78
2023/01/12 06:19:02;;;;;;;17.92;2.60;;;7.10;99.90;;;;;;4994900;28;20203;-78
2023/01/12 06:21:27;;;;;;;16.42;3.17;;;7.10;99.90;;;;;;4995091;28;20188;-78
2023/01/12 06:23:53;;;;;;;14.55;3.20;;;7.10;99.90;;;;;;4995861;28;20262;-78
2023/01/12 06:26:18;;;;;;;9.02;2.70;;;7.10;99.90;;;;;;4997100;28;20662;-78
2023/01/12 06:28:44;;;;;;;13.27;2.88;;;7.10;99.90;;;;;;4994551;28;20259;-78
2023/01/12 06:31:12;;;;;;;9.38;2.78;;;7.20;99.90;;;;;;4995519;28;20289;-79
2023/01/12 06:33:38;;;;;;;10.77;2.55;;;7.20;99.90;;;;;;4995345;28;20184;-78
2023/01/12 06:36:04;;;;;;;12.20;2.80;;;7.20;99.90;;;;;;4995885;28;20168;-78
2023/01/12 06:38:31;;;;;;;11.45;2.78;;;7.20;99.90;;;;;;4995768;28;20274;-77
2023/01/12 06:41:02;;;;;;;9.63;2.50;;;7.30;99.90;;;;;;4995032;28;20208;-77
2023/01/12 06:43:28;;;;;;;12.57;3.05;;;7.30;99.90;;;;;;4995293;28;20258;-78
2023/01/12 06:45:54;;;;;;;12.00;2.50;;;7.30;99.90;;;;;;4995318;28;20231;-78
2023/01/12 06:48:22;;;;;;;8.38;2.40;;;7.20;99.90;;;;;;4995165;28;20200;-78
2023/01/12 06:50:48;;;;;;;11.57;2.75;;;7.20;99.90;;;;;;4994523;28;20184;-78
2023/01/12 06:53:13;;;;;;;12.85;2.70;;;7.10;99.90;;;;;;4996225;28;20200;-78
2023/01/12 06:55:39;;;;;;;8.50;2.65;;;7.10;99.90;;;;;;4994282;28;20191;-78
2023/01/12 06:58:04;;;;;;;11.77;2.63;;;7.10;99.90;;;;;;4994360;28;20203;-78
2023/01/12 07:00:31;;;;;;;10.75;2.50;;;7.10;99.90;;;;;;4994303;28;20234;-78
2023/01/12 07:02:57;;;;;;;13.00;3.20;;;7.10;99.90;;;;;;4994457;28;20180;-78
2023/01/12 07:05:23;;;;;;;10.40;2.95;;;7.10;99.90;;;;;;4993799;28;20180;-83
2023/01/12 07:07:48;;;;;;;16.25;5.57;;;7.20;99.90;;;;;;4994226;28;20262;-78
2023/01/12 07:10:14;;;;;;;10.48;4.65;;;7.20;99.90;;;;;;4994495;28;20369;-78
2023/01/12 07:12:40;;;;;;;14.10;4.50;;;7.30;99.90;;;;;;4994976;28;20191;-78
2023/01/12 07:15:06;;;;;;;19.38;9.18;;;7.30;99.90;;;;;;4994224;28;20187;-78
2023/01/12 07:17:32;;;;;;;21.80;10.50;;;7.30;99.90;;;;;;4995497;28;20206;-78
2023/01/12 07:19:58;;;;;;;19.58;8.77;;;7.30;99.90;;;;;;4993882;28;20208;-78
2023/01/12 07:22:25;;;;;;;20.08;9.73;;;7.30;99.90;;;;;;4994032;28;20172;-78
2023/01/12 07:24:50;;;;;;;18.48;7.88;;;7.30;99.90;;;;;;4994427;28;20700;-78
2023/01/12 07:27:16;;;;;;;14.98;5.80;;;7.30;99.90;;;;;;4994266;28;20200;-77
2023/01/12 07:29:41;;;;;;;18.33;7.70;;;7.30;99.90;;;;;;4994420;28;20654;-84
2023/01/12 07:32:08;;;;;;;18.02;8.05;;;7.30;99.90;;;;;;4994744;28;20303;-82
2023/01/12 07:34:34;;;;;;;20.30;9.80;;;7.30;99.90;;;;;;4993947;28;20275;-78
2023/01/12 07:36:59;;;;;;;24.98;10.23;;;7.30;99.90;;;;;;4995306;28;20192;-78
2023/01/12 07:39:25;;;;;;;33.25;15.82;;;7.30;99.90;;;;;;4993774;28;20204;-78
2023/01/12 07:44:34;;;;;;;25.52;12.05;;;7.30;99.90;;;;;;4995306;28;20187;-78
2023/01/12 07:47:00;;;;;;;23.80;12.30;;;7.40;99.90;;;;;;4993635;28;20642;-80
2023/01/12 07:49:26;;;;;;;19.00;9.38;;;7.30;99.90;;;;;;4993487;28;20188;-78
2023/01/12 07:51:53;;;;;;;22.50;9.20;;;7.40;99.90;;;;;;4994265;28;20270;-78
2023/01/12 07:54:19;;;;;;;22.58;9.50;;;7.40;99.90;;;;;;4994953;28;20179;-78
2023/01/12 07:56:44;;;;;;;23.90;11.88;;;7.40;99.90;;;;;;4995067;28;20188;-78
2023/01/12 07:59:10;;;;;;;29.80;13.20;;;7.30;99.90;;;;;;4994270;28;20172;-78
2023/01/12 08:01:36;;;;;;;23.38;11.88;;;7.30;99.90;;;;;;4993678;28;20176;-78
2023/01/12 08:04:02;;;;;;;26.20;8.73;;;7.30;99.90;;;;;;4995086;28;20183;-78
2023/01/12 08:06:28;;;;;;;27.42;12.40;;;7.30;99.90;;;;;;4995419;28;20183;-78
2023/01/12 08:08:54;;;;;;;14.20;5.85;;;7.30;99.90;;;;;;4994224;28;20196;-79
2023/01/12 08:11:20;;;;;;;17.17;6.90;;;7.20;99.90;;;;;;4993579;28;20184;-78
2023/01/12 08:13:45;;;;;;;20.45;8.82;;;7.20;99.90;;;;;;4994283;28;20184;-79
2023/01/12 08:16:17;;;;;;;19.88;8.68;;;7.20;99.90;;;;;;4997512;28;20180;-79
2023/01/12 08:18:57;;;;;;;26.25;10.40;;;7.20;99.90;;;;;;4998640;28;20196;-78
2023/01/12 08:21:27;;;;;;;21.55;11.32;;;7.20;99.90;;;;;;4998135;28;20232;-78
2023/01/12 08:23:56;;;;;;;22.23;9.65;;;7.20;99.90;;;;;;4997680;28;20180;-78
2023/01/12 08:26:32;;;;;;;16.35;6.18;;;7.20;99.90;;;;;;4997261;28;20230;-78
2023/01/12 08:29:12;;;;;;;12.25;3.20;;;7.20;99.90;;;;;;4997549;28;20206;-78
2023/01/12 08:31:38;;;;;;;9.30;3.35;;;7.20;99.90;;;;;;4997097;28;20179;-78
2023/01/12 08:34:06;;;;;;;10.05;3.05;;;7.20;99.90;;;;;;4997108;28;20180;-78
2023/01/12 08:36:33;;;;;;;16.60;4.25;;;7.20;99.90;;;;;;4998374;28;20192;-78
2023/01/12 08:39:03;;;;;;;14.73;3.10;;;7.20;99.90;;;;;;4996935;28;20258;-78
2023/01/12 08:41:33;;;;;;;9.57;3.15;;;7.10;99.90;;;;;;4996979;28;20195;-78
2023/01/12 08:44:12;;;;;;;12.02;2.83;;;7.10;99.90;;;;;;4998390;28;20234;-78
2023/01/12 08:46:46;;;;;;;11.32;3.03;;;7.10;99.90;;;;;;4996787;28;20543;-78
2023/01/12 08:49:13;;;;;;;11.63;2.90;;;7.20;99.90;;;;;;4996920;28;20180;-78
2023/01/12 08:51:39;;;;;;;9.15;2.67;;;7.20;99.90;;;;;;4996492;28;20287;-78
2023/01/12 08:54:05;;;;;;;8.50;2.70;;;7.20;99.90;;;;;;4997121;28;20176;-79
2023/01/12 08:56:31;;;;;;;10.90;3.00;;;7.20;99.90;;;;;;4996694;28;20173;-78
2023/01/12 08:58:57;;;;;;;10.52;2.70;;;7.20;99.90;;;;;;4997910;28;20219;-78
2023/01/12 09:01:23;;;;;;;9.02;3.05;;;7.20;99.90;;;;;;4996443;28;20244;-79
2023/01/12 09:03:48;;;;;;;11.52;2.67;;;7.20;99.90;;;;;;4996566;28;20271;-78
2023/01/12 09:06:22;;;;;;;9.35;2.60;;;7.20;99.90;;;;;;4996522;28;20211;-78
2023/01/12 09:08:59;;;;;;;10.52;2.65;;;7.30;99.90;;;;;;4996195;28;20283;-78
2023/01/12 09:11:27;;;;;;;9.18;3.33;;;7.20;99.90;;;;;;4997849;28;20689;-79
2023/01/12 09:13:54;;;;;;;12.63;2.90;;;7.30;99.90;;;;;;4996197;28;20819;-82
2023/01/12 09:16:20;;;;;;;12.23;2.65;;;7.30;99.90;;;;;;4996127;28;20184;-79
2023/01/12 09:18:46;;;;;;;10.10;2.10;;;7.30;99.90;;;;;;4996155;28;20200;-78
2023/01/12 09:21:14;;;;;;;9.57;2.85;;;7.30;99.90;;;;;;4996954;28;20207;-78
2023/01/12 09:23:41;;;;;;;12.40;2.65;;;7.30;99.90;;;;;;4997887;28;20168;-78
2023/01/12 09:26:12;;;;;;;8.48;2.67;;;7.30;99.90;;;;;;4994877;28;20180;-78
2023/01/12 09:28:37;;;;;;;9.75;2.40;;;7.40;99.90;;;;;;4995929;28;20200;-78
2023/01/12 09:31:08;;;;;;;7.68;2.30;;;7.40;99.90;;;;;;4996009;28;20176;-78
2023/01/12 09:33:36;;;;;;;11.10;2.50;;;7.40;99.90;;;;;;4997072;28;20206;-78
2023/01/12 09:36:07;;;;;;;10.10;2.50;;;7.40;99.90;;;;;;4995839;28;20188;-79
2023/01/12 09:38:35;;;;;;;9.13;2.60;;;7.40;99.90;;;;;;4995684;28;20196;-78
2023/01/12 09:47:39;;;;;;;7.07;2.35;;;7.40;99.90;;;;;;4997194;28;20266;-78
2023/01/12 09:50:32;;;;;;;9.05;3.10;;;7.40;99.90;;;;;;4997227;28;20176;-78
2023/01/12 09:53:02;;;;;;;8.82;2.88;;;7.40;99.90;;;;;;4995782;28;20206;-78
2023/01/12 09:55:38;;;;;;;10.30;2.70;;;7.40;99.90;;;;;;4995528;28;20230;-78
2023/01/12 09:58:20;;;;;;;5.88;2.20;;;7.50;99.90;;;;;;4996211;28;20196;-78
2023/01/12 10:00:58;;;;;;;8.30;2.80;;;7.50;99.90;;;;;;4996235;28;20227;-78
2023/01/12 10:03:37;;;;;;;6.85;1.95;;;7.50;99.90;;;;;;4995987;28;20168;-78
2023/01/12 10:06:04;;;;;;;7.75;2.05;;;7.60;99.90;;;;;;4995215;28;20176;-79
2023/01/12 10:08:49;;;;;;;8.38;2.15;;;7.60;99.90;;;;;;4995034;28;20200;-78
2023/01/12 10:11:49;;;;;;;8.18;2.30;;;7.60;99.90;;;;;;4995228;28;20175;-79
2023/01/12 10:14:23;;;;;;;9.00;2.35;;;7.60;99.90;;;;;;4996317;28;20248;-79
2023/01/12 10:17:25;;;;;;;6.50;2.35;;;7.60;99.90;;;;;;4995060;28;20208;-78
2023/01/12 10:20:31;;;;;;;8.55;2.28;;;7.60;99.90;;;;;;4995559;28;20200;-78
2023/01/12 10:23:08;;;;;;;8.18;2.50;;;7.60;99.90;;;;;;4994828;28;20173;-79
2023/01/12 10:25:42;;;;;;;9.68;2.30;;;7.60;99.90;;;;;;4996768;28;20172;-79
2023/01/12 10:28:22;;;;;;;6.10;1.88;;;7.50;99.90;;;;;;4995712;28;20234;-78
2023/01/12 10:30:48;;;;;;;8.38;2.10;;;7.50;99.90;;;;;;4995489;28;20192;-78
2023/01/12 10:33:22;;;;;;;4.32;2.20;;;7.60;99.90;;;;;;4996039;28;20181;-78
2023/01/12 10:35:52;;;;;;;5.60;1.88;;;7.50;99.90;;;;;;4995852;28;20164;-78
2023/01/12 10:38:26;;;;;;;7.47;2.10;;;7.60;99.90;;;;;;4994793;28;20208;-78
2023/01/12 10:41:11;;;;;;;5.35;1.85;;;7.60;99.90;;;;;;4995945;28;20194;-78
2023/01/12 10:43:38;;;;;;;5.47;1.88;;;7.60;99.90;;;;;;4995935;28;20550;-78
2023/01/12 10:46:14;;;;;;;6.22;2.10;;;7.60;99.90;;;;;;4995800;28;20179;-78
2023/01/12 10:48:46;;;;;;;5.85;1.75;;;7.70;99.90;;;;;;4994395;28;20326;-78
2023/01/12 10:51:25;;;;;;;6.15;2.10;;;7.70;99.90;;;;;;4994499;28;20248;-78
2023/01/12 10:54:00;;;;;;;7.13;2.03;;;7.70;99.90;;;;;;4995118;28;20172;-79
2023/01/12 10:56:36;;;;;;;5.63;1.90;;;7.80;99.90;;;;;;4994711;28;20207;-79
2023/01/12 10:59:24;;;;;;;5.13;1.73;;;7.80;99.90;;;;;;4994357;28;20199;-78
2023/01/12 11:02:05;;;;;;;3.70;1.42;;;7.80;99.90;;;;;;4994439;28;20274;-78
2023/01/12 11:04:51;;;;;;;4.28;1.52;;;7.90;99.90;;;;;;4996019;28;20275;-78
2023/01/12 11:07:24;;;;;;;4.07;1.48;;;8.00;99.90;;;;;;4995238;28;20219;-81
2023/01/12 11:09:50;;;;;;;4.00;1.70;;;8.00;99.90;;;;;;4994965;28;20177;-79
2023/01/12 11:12:32;;;;;;;6.82;1.98;;;8.00;99.90;;;;;;4995266;28;20187;-79
2023/01/12 11:15:10;;;;;;;5.55;1.98;;;8.00;99.90;;;;;;4994715;28;20172;-79
2023/01/12 11:18:02;;;;;;;5.15;3.05;;;8.00;99.90;;;;;;4993723;28;20227;-78
2023/01/12 11:20:40;;;;;;;6.68;1.88;;;8.10;99.90;;;;;;4993637;28;20196;-78
2023/01/12 11:23:33;;;;;;;4.05;2.50;;;8.00;99.90;;;;;;4993966;28;20642;-78
2023/01/12 11:26:01;;;;;;;7.28;4.47;;;8.10;99.90;;;;;;4996068;28;20512;-78
2023/01/12 11:28:46;;;;;;;6.07;3.90;;;8.10;99.90;;;;;;4994293;28;20286;-79
2023/01/12 11:31:24;;;;;;;4.18;2.88;;;8.10;99.90;;;;;;4996840;28;20169;-80
2023/01/12 11:33:57;;;;;;;5.70;2.92;;;8.00;99.90;;;;;;4996575;28;20168;-79
2023/01/12 11:36:34;;;;;;;6.63;2.50;;;8.00;99.90;;;;;;4996151;28;20176;-79
2023/01/12 11:39:04;;;;;;;4.88;2.63;;;8.00;99.90;;;;;;4995553;28;20235;-78
2023/01/12 11:41:39;;;;;;;6.10;3.03;;;8.00;99.90;;;;;;4996131;28;20208;-78
2023/01/12 11:44:14;;;;;;;4.85;2.90;;;8.10;99.90;;;;;;4995366;28;20172;-78
2023/01/12 11:47:10;;;;;;;5.57;2.65;;;8.00;99.90;;;;;;4996347;28;20180;-78
2023/01/12 11:49:52;;;;;;;3.05;2.75;;;8.00;99.90;;;;;;4996622;28;20172;-80
2023/01/12 11:52:17;;;;;;;4.88;2.13;;;8.00;99.90;;;;;;4996171;28;20192;-79
2023/01/12 11:54:43;;;;;;;6.80;4.30;;;8.10;99.90;;;;;;5009990;28;20179;-78
2023/01/12 11:57:27;;;;;;;10.95;6.82;;;8.10;99.90;;;;;;4995511;28;20200;-78
2023/01/12 12:00:07;;;;;;;9.68;5.45;;;8.10;99.90;;;;;;4999892;28;20204;-78
2023/01/12 12:02:40;;;;;;;8.18;5.20;;;8.10;99.90;;;;;;5015702;28;20171;-78
2023/01/12 12:05:25;;;;;;;8.98;3.53;;;8.10;99.90;;;;;;5011683;28;20184;-78
2023/01/12 12:08:14;;;;;;;8.45;4.75;;;8.10;99.90;;;;;;4995397;28;20204;-78
2023/01/12 12:10:59;;;;;;;13.85;7.70;;;8.10;99.90;;;;;;4997201;28;20235;-79
2023/01/12 12:14:10;;;;;;;8.25;4.95;;;8.10;99.90;;;;;;4996727;28;20168;-79
2023/01/12 12:17:06;;;;;;;7.22;3.63;;;8.10;99.90;;;;;;4995510;28;20643;-78
2023/01/12 12:19:47;;;;;;;6.63;3.38;;;8.10;99.90;;;;;;4995071;28;20177;-78
2023/01/12 12:22:46;;;;;;;6.53;3.00;;;8.20;99.90;;;;;;4996117;28;20183;-78
2023/01/12 12:25:22;;;;;;;4.97;4.20;;;8.20;99.90;;;;;;4996057;28;20169;-78
2023/01/12 12:27:53;;;;;;;6.07;3.15;;;8.20;99.90;;;;;;4994863;28;20658;-78
2023/01/12 12:30:43;;;;;;;4.50;2.90;;;8.20;99.90;;;;;;4997676;28;20192;-78
2023/01/12 12:33:24;;;;;;;6.05;2.95;;;8.30;99.90;;;;;;5013499;28;20179;-78
2023/01/12 12:36:05;;;;;;;4.88;3.90;;;8.30;99.90;;;;;;5012356;28;20179;-78
2023/01/12 12:39:01;;;;;;;9.15;4.95;;;8.30;99.90;;;;;;5012481;28;20196;-78
2023/01/12 12:45:15;;;;;;;25.13;22.35;;;8.30;99.90;;;;;;4994801;28;20223;-78
2023/01/12 12:48:01;;;;;;;8.98;7.95;;;8.30;99.90;;;;;;4974970;28;20212;-78
2023/01/12 12:50:42;;;;;;;7.03;4.35;;;8.40;99.90;;;;;;4993759;28;20205;-78
2023/01/12 12:53:37;;;;;;;6.43;4.03;;;8.50;99.90;;;;;;5013775;28;20223;-78
2023/01/12 12:56:05;;;;;;;26.70;20.90;;;8.50;99.90;;;;;;5008866;28;20706;-78
2023/01/12 12:58:54;;;;;;;9.43;6.00;;;8.50;99.90;;;;;;4995371;28;20196;-78
2023/01/12 13:01:21;;;;;;;11.48;6.00;;;8.60;99.90;;;;;;5004648;28;20231;-78
2023/01/12 13:03:46;;;;;;;7.35;6.00;;;8.60;99.90;;;;;;5018698;28;20168;-78
2023/01/12 13:06:22;;;;;;;16.77;13.15;;;8.50;99.90;;;;;;5011993;28;20191;-78
2023/01/12 13:08:50;;;;;;;8.38;4.00;;;8.50;99.90;;;;;;4999547;28;20211;-78
2023/01/12 13:11:17;;;;;;;9.35;5.28;;;8.50;99.90;;;;;;4998054;28;20184;-78
2023/01/12 13:14:00;;;;;;;13.05;11.10;;;8.50;99.90;;;;;;4997928;28;20230;-79
2023/01/12 13:16:28;;;;;;;7.45;4.78;;;8.50;99.90;;;;;;4999133;28;20186;-78
2023/01/12 13:18:56;;;;;;;9.15;5.40;;;8.50;99.90;;;;;;4996094;28;20193;-79
2023/01/12 13:21:55;;;;;;;6.00;3.50;;;8.50;99.90;;;;;;4997524;28;20208;-78
2023/01/12 13:24:38;;;;;;;4.30;3.40;;;8.50;99.90;;;;;;4998943;28;20184;-78
2023/01/12 13:27:42;;;;;;;5.45;3.03;;;8.40;99.90;;;;;;4999161;28;20200;-78
2023/01/12 13:30:29;;;;;;;6.00;2.38;;;8.40;99.90;;;;;;4996939;28;20602;-78
2023/01/12 13:32:58;;;;;;;8.60;4.45;;;8.50;99.90;;;;;;4997642;28;20196;-79
2023/01/12 13:35:34;;;;;;;5.80;3.30;;;8.50;99.90;;;;;;4997136;28;20215;-79
2023/01/12 13:38:25;;;;;;;3.85;2.90;;;8.50;99.90;;;;;;5011757;28;20206;-78
2023/01/12 13:41:00;;;;;;;3.35;2.20;;;8.50;99.90;;;;;;4977382;28;20204;-79
2023/01/12 13:43:33;;;;;;;3.38;2.08;;;8.40;99.90;;;;;;5016909;28;20226;-79
2023/01/12 13:46:19;;;;;;;3.55;1.98;;;8.40;99.90;;;;;;5016857;28;20171;-79
2023/01/12 13:48:48;;;;;;;4.78;2.83;;;8.40;99.90;;;;;;4976781;28;20197;-78